AEE890 LGAV-UBBB
Flight info
| Callsign | AEE890 |
|---|---|
| Flight time | 2h 56m |
| Altitude | 35000 |
| Route | KRO UN604 SOSIR UG802 IMR UR32 VAKUM UT54 NESET UR32 HAY UW705 GEM UA285 SIV UA4 ERZ UB374 INDUR N449 GOTUB T447 INSAN |
| Aircraft | A320/M-SDE3FGHIRWY/LB1 |
Departure
| Time | 2026-05-07 19:26 |
|---|---|
| Airport | Athens Eleftherios Venizelos International Airport (LGAV) |
Arrival
| Time | 2026-05-07 22:22 |
|---|---|
| Airport | Heydar Aliyev International Airport (UBBB) |
| Time | Latitude | Longitude | Altitude | Speed | Heading |
|---|---|---|---|---|---|
| 2026-05-07 18:57 | 37.93557 | 23.94801 | 301 ft | 0 kts | 307° |
| 2026-05-07 19:15 | 37.93546 | 23.94820 | 301 ft | 3 kts | 307° |
| 2026-05-07 19:16 | 37.93533 | 23.94841 | 301 ft | 4 kts | 314° |
| 2026-05-07 19:16 | 37.93512 | 23.94862 | 300 ft | 4 kts | 348° |
| 2026-05-07 19:16 | 37.93491 | 23.94856 | 300 ft | 4 kts | 37° |
| 2026-05-07 19:16 | 37.93481 | 23.94846 | 303 ft | 0 kts | 37° |
| 2026-05-07 19:18 | 37.93492 | 23.94856 | 300 ft | 5 kts | 37° |
| 2026-05-07 19:19 | 37.93540 | 23.94903 | 304 ft | 11 kts | 37° |
| 2026-05-07 19:19 | 37.93602 | 23.94967 | 302 ft | 12 kts | 52° |
| 2026-05-07 19:19 | 37.93597 | 23.95068 | 300 ft | 12 kts | 81° |
| 2026-05-07 19:19 | 37.93657 | 23.95147 | 302 ft | 13 kts | 50° |
| 2026-05-07 19:20 | 37.93648 | 23.95260 | 297 ft | 14 kts | 82° |
| 2026-05-07 19:20 | 37.93723 | 23.95349 | 298 ft | 16 kts | 36° |
| 2026-05-07 19:20 | 37.93815 | 23.95437 | 296 ft | 17 kts | 38° |
| 2026-05-07 19:20 | 37.93914 | 23.95531 | 297 ft | 18 kts | 36° |
| 2026-05-07 19:21 | 37.94017 | 23.95629 | 300 ft | 19 kts | 37° |
| 2026-05-07 19:21 | 37.94128 | 23.95734 | 297 ft | 20 kts | 37° |
| 2026-05-07 19:21 | 37.94242 | 23.95842 | 299 ft | 21 kts | 37° |
| 2026-05-07 19:21 | 37.94356 | 23.95951 | 298 ft | 20 kts | 37° |
| 2026-05-07 19:22 | 37.94468 | 23.96057 | 299 ft | 19 kts | 37° |
| 2026-05-07 19:22 | 37.94575 | 23.96159 | 301 ft | 19 kts | 36° |
| 2026-05-07 19:22 | 37.94686 | 23.96264 | 299 ft | 20 kts | 38° |
| 2026-05-07 19:22 | 37.94800 | 23.96372 | 300 ft | 21 kts | 37° |
| 2026-05-07 19:23 | 37.94920 | 23.96484 | 301 ft | 22 kts | 36° |
| 2026-05-07 19:23 | 37.95042 | 23.96602 | 304 ft | 22 kts | 37° |
| 2026-05-07 19:23 | 37.95170 | 23.96721 | 304 ft | 23 kts | 38° |
| 2026-05-07 19:23 | 37.95296 | 23.96853 | 305 ft | 22 kts | 62° |
| 2026-05-07 19:24 | 37.95251 | 23.96976 | 309 ft | 14 kts | 124° |
| 2026-05-07 19:24 | 37.95181 | 23.97013 | 310 ft | 11 kts | 204° |
| 2026-05-07 19:24 | 37.95169 | 23.97001 | 312 ft | 0 kts | 217° |
| 2026-05-07 19:25 | 37.95052 | 23.96888 | 310 ft | 56 kts | 218° |
| 2026-05-07 19:25 | 37.94565 | 23.96427 | 292 ft | 116 kts | 217° |
| 2026-05-07 19:25 | 37.93790 | 23.95686 | 283 ft | 161 kts | 218° |
| 2026-05-07 19:25 | 37.92866 | 23.94837 | 706 ft | 165 kts | 215° |
| 2026-05-07 19:26 | 37.91868 | 23.94090 | 1213 ft | 169 kts | 208° |
| 2026-05-07 19:26 | 37.90839 | 23.93383 | 1857 ft | 168 kts | 208° |
| 2026-05-07 19:26 | 37.89809 | 23.92686 | 2416 ft | 167 kts | 207° |
| 2026-05-07 19:26 | 37.88733 | 23.91964 | 2696 ft | 183 kts | 207° |
| 2026-05-07 19:27 | 37.87582 | 23.91189 | 3066 ft | 192 kts | 207° |
| 2026-05-07 19:27 | 37.86371 | 23.90361 | 3436 ft | 203 kts | 207° |
| 2026-05-07 19:27 | 37.85096 | 23.89499 | 3911 ft | 212 kts | 206° |
| 2026-05-07 19:27 | 37.83776 | 23.88645 | 4546 ft | 213 kts | 206° |
| 2026-05-07 19:28 | 37.82462 | 23.87812 | 5143 ft | 216 kts | 207° |
| 2026-05-07 19:28 | 37.81112 | 23.86907 | 5666 ft | 222 kts | 208° |
| 2026-05-07 19:28 | 37.79719 | 23.85949 | 6139 ft | 233 kts | 208° |
| 2026-05-07 19:28 | 37.78223 | 23.84948 | 6471 ft | 252 kts | 202° |
| 2026-05-07 19:29 | 37.76481 | 23.84609 | 7007 ft | 259 kts | 174° |
| 2026-05-07 19:29 | 37.74772 | 23.85319 | 7527 ft | 272 kts | 149° |
| 2026-05-07 19:29 | 37.73382 | 23.87027 | 7922 ft | 286 kts | 123° |
| 2026-05-07 19:29 | 37.72390 | 23.89245 | 8550 ft | 292 kts | 118° |
| 2026-05-07 19:30 | 37.71487 | 23.91561 | 9224 ft | 295 kts | 116° |
| 2026-05-07 19:30 | 37.70614 | 23.93922 | 9885 ft | 299 kts | 116° |
| 2026-05-07 19:30 | 37.69692 | 23.96319 | 10325 ft | 311 kts | 118° |
| 2026-05-07 19:30 | 37.68682 | 23.98853 | 10449 ft | 333 kts | 118° |
| 2026-05-07 19:31 | 37.67602 | 24.01498 | 10565 ft | 353 kts | 118° |
| 2026-05-07 19:31 | 37.66432 | 24.04317 | 10694 ft | 371 kts | 119° |
| 2026-05-07 19:31 | 37.65194 | 24.07271 | 10921 ft | 385 kts | 119° |
| 2026-05-07 19:31 | 37.63924 | 24.10285 | 11393 ft | 391 kts | 119° |
| 2026-05-07 19:32 | 37.62642 | 24.13332 | 11909 ft | 395 kts | 119° |
| 2026-05-07 19:32 | 37.61345 | 24.16421 | 12430 ft | 399 kts | 119° |
| 2026-05-07 19:32 | 37.60208 | 24.19594 | 12929 ft | 405 kts | 107° |
| 2026-05-07 19:32 | 37.59783 | 24.23113 | 13448 ft | 409 kts | 89° |
| 2026-05-07 19:33 | 37.60207 | 24.26663 | 13973 ft | 411 kts | 71° |
| 2026-05-07 19:33 | 37.61444 | 24.29918 | 14466 ft | 411 kts | 53° |
| 2026-05-07 19:33 | 37.63371 | 24.32567 | 14936 ft | 409 kts | 36° |
| 2026-05-07 19:33 | 37.65815 | 24.34368 | 15443 ft | 407 kts | 19° |
| 2026-05-07 19:34 | 37.68450 | 24.35563 | 15940 ft | 408 kts | 17° |
| 2026-05-07 19:34 | 37.71143 | 24.36763 | 16441 ft | 411 kts | 17° |
| 2026-05-07 19:34 | 37.73856 | 24.37975 | 16953 ft | 414 kts | 17° |
| 2026-05-07 19:34 | 37.76584 | 24.39200 | 17451 ft | 417 kts | 17° |
| 2026-05-07 19:35 | 37.79328 | 24.40435 | 17952 ft | 420 kts | 17° |
| 2026-05-07 19:35 | 37.82068 | 24.41669 | 18434 ft | 423 kts | 17° |
| 2026-05-07 19:35 | 37.84853 | 24.42925 | 18856 ft | 426 kts | 17° |
| 2026-05-07 19:35 | 37.87658 | 24.44189 | 19306 ft | 428 kts | 16° |
| 2026-05-07 19:36 | 37.90478 | 24.45458 | 19719 ft | 430 kts | 16° |
| 2026-05-07 19:36 | 37.93270 | 24.46711 | 20127 ft | 432 kts | 16° |
| 2026-05-07 19:36 | 37.96026 | 24.48210 | 20521 ft | 439 kts | 27° |
| 2026-05-07 19:36 | 37.98469 | 24.50651 | 20890 ft | 447 kts | 44° |
| 2026-05-07 19:37 | 38.00550 | 24.53601 | 21259 ft | 451 kts | 46° |
| 2026-05-07 19:37 | 38.02621 | 24.56612 | 21599 ft | 454 kts | 46° |
| 2026-05-07 19:37 | 38.04696 | 24.59664 | 21921 ft | 456 kts | 47° |
| 2026-05-07 19:37 | 38.06747 | 24.62694 | 22219 ft | 459 kts | 47° |
| 2026-05-07 19:38 | 38.08842 | 24.65776 | 22537 ft | 462 kts | 46° |
| 2026-05-07 19:38 | 38.10958 | 24.68876 | 22839 ft | 464 kts | 46° |
| 2026-05-07 19:38 | 38.13088 | 24.71985 | 23126 ft | 467 kts | 46° |
| 2026-05-07 19:38 | 38.15233 | 24.75117 | 23425 ft | 470 kts | 46° |
| 2026-05-07 19:39 | 38.17382 | 24.78258 | 23703 ft | 472 kts | 46° |
| 2026-05-07 19:39 | 38.19510 | 24.81376 | 23940 ft | 474 kts | 46° |
| 2026-05-07 19:39 | 38.21679 | 24.84562 | 24213 ft | 476 kts | 46° |
| 2026-05-07 19:39 | 38.23114 | 24.86671 | 24459 ft | 475 kts | 46° |
| 2026-05-07 19:40 | 38.26001 | 24.90920 | 24971 ft | 473 kts | 45° |
| 2026-05-07 19:40 | 38.28152 | 24.94089 | 25359 ft | 472 kts | 45° |
| 2026-05-07 19:40 | 38.30293 | 24.97250 | 25746 ft | 471 kts | 45° |
| 2026-05-07 19:40 | 38.32402 | 25.00367 | 26133 ft | 470 kts | 45° |
| 2026-05-07 19:41 | 38.34538 | 25.03524 | 26542 ft | 468 kts | 45° |
| 2026-05-07 19:41 | 38.36616 | 25.06737 | 26948 ft | 470 kts | 50° |
| 2026-05-07 19:41 | 38.38307 | 25.10337 | 27353 ft | 475 kts | 60° |
| 2026-05-07 19:41 | 38.39492 | 25.14288 | 27766 ft | 479 kts | 71° |
| 2026-05-07 19:42 | 38.40127 | 25.18428 | 28163 ft | 483 kts | 81° |
| 2026-05-07 19:42 | 38.40201 | 25.22728 | 28560 ft | 486 kts | 91° |
| 2026-05-07 19:42 | 38.39985 | 25.27025 | 28943 ft | 485 kts | 91° |
| 2026-05-07 19:42 | 38.39769 | 25.31315 | 29330 ft | 485 kts | 91° |
| 2026-05-07 19:43 | 38.39551 | 25.35610 | 29726 ft | 485 kts | 91° |
| 2026-05-07 19:43 | 38.39333 | 25.39910 | 29942 ft | 488 kts | 91° |
| 2026-05-07 19:43 | 38.39115 | 25.44210 | 30085 ft | 493 kts | 91° |
| 2026-05-07 19:43 | 38.38891 | 25.48596 | 30226 ft | 498 kts | 91° |
| 2026-05-07 19:44 | 38.38663 | 25.53017 | 30347 ft | 502 kts | 90° |
| 2026-05-07 19:44 | 38.38432 | 25.57480 | 30466 ft | 506 kts | 90° |
| 2026-05-07 19:44 | 38.38195 | 25.61990 | 30594 ft | 510 kts | 90° |
| 2026-05-07 19:44 | 38.37953 | 25.66513 | 30712 ft | 513 kts | 90° |
| 2026-05-07 19:45 | 38.37709 | 25.71017 | 30831 ft | 516 kts | 90° |
| 2026-05-07 19:45 | 38.37484 | 25.75123 | 30944 ft | 518 kts | 90° |
| 2026-05-07 19:45 | 38.37237 | 25.79722 | 31069 ft | 520 kts | 90° |
| 2026-05-07 19:45 | 38.36983 | 25.84346 | 31190 ft | 523 kts | 90° |
| 2026-05-07 19:46 | 38.36508 | 25.92051 | 31417 ft | 526 kts | 90° |
| 2026-05-07 19:46 | 38.36190 | 25.96665 | 31569 ft | 527 kts | 90° |
| 2026-05-07 19:46 | 38.35857 | 26.01320 | 31729 ft | 528 kts | 90° |
| 2026-05-07 19:47 | 38.35522 | 26.06001 | 31899 ft | 529 kts | 90° |
| 2026-05-07 19:47 | 38.35192 | 26.10680 | 32083 ft | 530 kts | 89° |
| 2026-05-07 19:47 | 38.34884 | 26.15361 | 32286 ft | 529 kts | 88° |
| 2026-05-07 19:47 | 38.34697 | 26.19977 | 32447 ft | 528 kts | 86° |
| 2026-05-07 19:48 | 38.34598 | 26.24649 | 32622 ft | 528 kts | 85° |
| 2026-05-07 19:48 | 38.34518 | 26.29325 | 32806 ft | 528 kts | 85° |
| 2026-05-07 19:48 | 38.34415 | 26.34016 | 32993 ft | 529 kts | 85° |
| 2026-05-07 19:48 | 38.34277 | 26.38715 | 33180 ft | 530 kts | 86° |
| 2026-05-07 19:49 | 38.34105 | 26.43416 | 33364 ft | 530 kts | 86° |
| 2026-05-07 19:49 | 38.33911 | 26.48117 | 33558 ft | 531 kts | 86° |
| 2026-05-07 19:49 | 38.33708 | 26.52816 | 33747 ft | 531 kts | 86° |
| 2026-05-07 19:49 | 38.33510 | 26.57463 | 33925 ft | 531 kts | 86° |
| 2026-05-07 19:50 | 38.33315 | 26.62171 | 34105 ft | 532 kts | 85° |
| 2026-05-07 19:50 | 38.33126 | 26.66895 | 34246 ft | 531 kts | 85° |
| 2026-05-07 19:50 | 38.32939 | 26.71591 | 34411 ft | 531 kts | 85° |
| 2026-05-07 19:50 | 38.32753 | 26.76294 | 34609 ft | 531 kts | 85° |
| 2026-05-07 19:51 | 38.32569 | 26.80932 | 34806 ft | 530 kts | 85° |
| 2026-05-07 19:51 | 38.32384 | 26.85626 | 35000 ft | 529 kts | 85° |
| 2026-05-07 19:51 | 38.32195 | 26.90308 | 35136 ft | 529 kts | 85° |
| 2026-05-07 19:51 | 38.31999 | 26.94993 | 35164 ft | 529 kts | 86° |
| 2026-05-07 19:52 | 38.32267 | 27.04158 | 35165 ft | 511 kts | 71° |
| 2026-05-07 19:52 | 38.33613 | 27.13026 | 35170 ft | 508 kts | 70° |
| 2026-05-07 19:53 | 38.34962 | 27.21867 | 35168 ft | 507 kts | 70° |
| 2026-05-07 19:53 | 38.36286 | 27.30635 | 35169 ft | 506 kts | 71° |
| 2026-05-07 19:54 | 38.37606 | 27.39450 | 35176 ft | 505 kts | 71° |
| 2026-05-07 19:54 | 38.38915 | 27.48255 | 35186 ft | 505 kts | 72° |
| 2026-05-07 19:55 | 38.40229 | 27.57065 | 35190 ft | 504 kts | 72° |
| 2026-05-07 19:55 | 38.41524 | 27.65774 | 35190 ft | 502 kts | 73° |
| 2026-05-07 19:56 | 38.42812 | 27.74537 | 35188 ft | 500 kts | 74° |
| 2026-05-07 19:56 | 38.44092 | 27.83259 | 35191 ft | 499 kts | 74° |
| 2026-05-07 19:57 | 38.45350 | 27.91898 | 35188 ft | 497 kts | 75° |
| 2026-05-07 19:57 | 38.46599 | 28.00580 | 35189 ft | 496 kts | 75° |
| 2026-05-07 19:58 | 38.47848 | 28.09247 | 35191 ft | 495 kts | 75° |
| 2026-05-07 19:58 | 38.49100 | 28.17890 | 35188 ft | 494 kts | 76° |
| 2026-05-07 19:59 | 38.50370 | 28.26453 | 35191 ft | 491 kts | 71° |
| 2026-05-07 19:59 | 38.52164 | 28.34859 | 35192 ft | 490 kts | 70° |
| 2026-05-07 20:00 | 38.53967 | 28.43258 | 35194 ft | 489 kts | 71° |
| 2026-05-07 20:00 | 38.55764 | 28.51646 | 35198 ft | 488 kts | 71° |
| 2026-05-07 20:01 | 38.57524 | 28.59961 | 35202 ft | 487 kts | 71° |
| 2026-05-07 20:01 | 38.58760 | 28.68496 | 35196 ft | 489 kts | 79° |
| 2026-05-07 20:02 | 38.59716 | 28.77102 | 35197 ft | 485 kts | 72° |
| 2026-05-07 20:02 | 38.61658 | 28.85312 | 35206 ft | 481 kts | 69° |
| 2026-05-07 20:03 | 38.63635 | 28.93494 | 35205 ft | 481 kts | 69° |
| 2026-05-07 20:03 | 38.65602 | 29.01629 | 35205 ft | 480 kts | 69° |
| 2026-05-07 20:04 | 38.67577 | 29.09798 | 35206 ft | 479 kts | 69° |
| 2026-05-07 20:04 | 38.69519 | 29.17909 | 35203 ft | 479 kts | 69° |
| 2026-05-07 20:05 | 38.71455 | 29.26081 | 35204 ft | 478 kts | 69° |
| 2026-05-07 20:05 | 38.73399 | 29.34254 | 35205 ft | 478 kts | 69° |
| 2026-05-07 20:06 | 38.75333 | 29.42372 | 35204 ft | 479 kts | 69° |
| 2026-05-07 20:06 | 38.77272 | 29.50539 | 35208 ft | 478 kts | 69° |
| 2026-05-07 20:07 | 38.79188 | 29.58665 | 35213 ft | 478 kts | 69° |
| 2026-05-07 20:07 | 38.81106 | 29.66839 | 35212 ft | 478 kts | 70° |
| 2026-05-07 20:08 | 38.83023 | 29.75032 | 35219 ft | 478 kts | 70° |
| 2026-05-07 20:08 | 38.84921 | 29.83173 | 35226 ft | 479 kts | 70° |
| 2026-05-07 20:09 | 38.86821 | 29.91357 | 35232 ft | 479 kts | 70° |
| 2026-05-07 20:10 | 38.89667 | 30.03670 | 35238 ft | 479 kts | 70° |
| 2026-05-07 20:10 | 38.91558 | 30.11886 | 35237 ft | 479 kts | 70° |
| 2026-05-07 20:11 | 38.93443 | 30.20106 | 35236 ft | 479 kts | 70° |
| 2026-05-07 20:11 | 38.95312 | 30.28292 | 35238 ft | 479 kts | 69° |
| 2026-05-07 20:12 | 38.97188 | 30.36521 | 35235 ft | 479 kts | 69° |
| 2026-05-07 20:12 | 38.99044 | 30.44694 | 35231 ft | 478 kts | 69° |
| 2026-05-07 20:13 | 39.00905 | 30.52916 | 35233 ft | 478 kts | 69° |
| 2026-05-07 20:13 | 39.02758 | 30.61130 | 35241 ft | 477 kts | 69° |
| 2026-05-07 20:14 | 39.04593 | 30.69286 | 35239 ft | 477 kts | 69° |
| 2026-05-07 20:14 | 39.06430 | 30.77502 | 35238 ft | 477 kts | 69° |
| 2026-05-07 20:15 | 39.08253 | 30.85716 | 35238 ft | 477 kts | 69° |
| 2026-05-07 20:15 | 39.10067 | 30.93889 | 35239 ft | 477 kts | 69° |
| 2026-05-07 20:16 | 39.11886 | 31.02119 | 35242 ft | 477 kts | 69° |
| 2026-05-07 20:16 | 39.13687 | 31.10305 | 35237 ft | 477 kts | 69° |
| 2026-05-07 20:17 | 39.15500 | 31.18535 | 35237 ft | 477 kts | 69° |
| 2026-05-07 20:17 | 39.17305 | 31.26774 | 35231 ft | 477 kts | 69° |
| 2026-05-07 20:18 | 39.19091 | 31.34968 | 35230 ft | 477 kts | 69° |
| 2026-05-07 20:18 | 39.20887 | 31.43223 | 35232 ft | 477 kts | 69° |
| 2026-05-07 20:19 | 39.22672 | 31.51478 | 35230 ft | 477 kts | 69° |
| 2026-05-07 20:19 | 39.24434 | 31.59678 | 35231 ft | 477 kts | 69° |
| 2026-05-07 20:20 | 39.26208 | 31.67944 | 35232 ft | 477 kts | 69° |
| 2026-05-07 20:20 | 39.27986 | 31.76219 | 35230 ft | 477 kts | 69° |
| 2026-05-07 20:21 | 39.29749 | 31.84468 | 35233 ft | 477 kts | 69° |
| 2026-05-07 20:21 | 39.31489 | 31.92686 | 35235 ft | 477 kts | 69° |
| 2026-05-07 20:22 | 39.33233 | 32.00963 | 35235 ft | 477 kts | 69° |
| 2026-05-07 20:22 | 39.34970 | 32.09184 | 35235 ft | 477 kts | 69° |
| 2026-05-07 20:23 | 39.36709 | 32.17450 | 35229 ft | 477 kts | 69° |
| 2026-05-07 20:23 | 39.38439 | 32.25739 | 35242 ft | 477 kts | 69° |
| 2026-05-07 20:24 | 39.40161 | 32.34038 | 35230 ft | 477 kts | 69° |
| 2026-05-07 20:24 | 39.41884 | 32.42328 | 35234 ft | 477 kts | 69° |
| 2026-05-07 20:25 | 39.43565 | 32.50589 | 35232 ft | 480 kts | 73° |
| 2026-05-07 20:25 | 39.44481 | 32.59209 | 35237 ft | 483 kts | 77° |
| 2026-05-07 20:26 | 39.45331 | 32.67856 | 35233 ft | 483 kts | 77° |
| 2026-05-07 20:26 | 39.46180 | 32.76446 | 35237 ft | 484 kts | 77° |
| 2026-05-07 20:27 | 39.47023 | 32.85103 | 35242 ft | 484 kts | 78° |
| 2026-05-07 20:27 | 39.47855 | 32.93767 | 35246 ft | 483 kts | 78° |
| 2026-05-07 20:28 | 39.48674 | 33.02348 | 35244 ft | 483 kts | 78° |
| 2026-05-07 20:28 | 39.49496 | 33.10996 | 35249 ft | 483 kts | 78° |
| 2026-05-07 20:29 | 39.50303 | 33.19638 | 35244 ft | 482 kts | 78° |
| 2026-05-07 20:29 | 39.51108 | 33.28223 | 35238 ft | 482 kts | 78° |
| 2026-05-07 20:30 | 39.51920 | 33.36864 | 35237 ft | 482 kts | 78° |
| 2026-05-07 20:30 | 39.52709 | 33.45442 | 35238 ft | 482 kts | 78° |
| 2026-05-07 20:31 | 39.53490 | 33.54096 | 35233 ft | 482 kts | 78° |
| 2026-05-07 20:31 | 39.54264 | 33.62682 | 35234 ft | 482 kts | 78° |
| 2026-05-07 20:32 | 39.55033 | 33.71323 | 35234 ft | 482 kts | 78° |
| 2026-05-07 20:32 | 39.55667 | 33.78517 | 35229 ft | 482 kts | 78° |
| 2026-05-07 20:33 | 39.56433 | 33.87173 | 35230 ft | 483 kts | 78° |
| 2026-05-07 20:33 | 39.57187 | 33.95782 | 35229 ft | 483 kts | 78° |
| 2026-05-07 20:34 | 39.57941 | 34.04440 | 35227 ft | 483 kts | 78° |
| 2026-05-07 20:34 | 39.58687 | 34.13107 | 35228 ft | 483 kts | 78° |
| 2026-05-07 20:35 | 39.59425 | 34.21770 | 35227 ft | 483 kts | 78° |
| 2026-05-07 20:35 | 39.60146 | 34.30389 | 35226 ft | 483 kts | 78° |
| 2026-05-07 20:36 | 39.60871 | 34.39076 | 35227 ft | 483 kts | 79° |
| 2026-05-07 20:36 | 39.61587 | 34.47761 | 35228 ft | 483 kts | 79° |
| 2026-05-07 20:37 | 39.62295 | 34.56380 | 35228 ft | 483 kts | 79° |
| 2026-05-07 20:37 | 39.62998 | 34.65061 | 35229 ft | 483 kts | 79° |
| 2026-05-07 20:38 | 39.63691 | 34.73760 | 35226 ft | 483 kts | 79° |
| 2026-05-07 20:38 | 39.64383 | 34.82395 | 35216 ft | 483 kts | 79° |
| 2026-05-07 20:39 | 39.65079 | 34.91085 | 35233 ft | 483 kts | 79° |
| 2026-05-07 20:39 | 39.65762 | 34.99773 | 35231 ft | 483 kts | 79° |
| 2026-05-07 20:40 | 39.66424 | 35.08462 | 35234 ft | 483 kts | 80° |
| 2026-05-07 20:40 | 39.67079 | 35.17105 | 35242 ft | 483 kts | 80° |
| 2026-05-07 20:41 | 39.67745 | 35.25788 | 35242 ft | 483 kts | 80° |
| 2026-05-07 20:41 | 39.68410 | 35.34473 | 35243 ft | 483 kts | 80° |
| 2026-05-07 20:42 | 39.69125 | 35.43109 | 35244 ft | 482 kts | 79° |
| 2026-05-07 20:42 | 39.69873 | 35.51775 | 35239 ft | 482 kts | 79° |
| 2026-05-07 20:43 | 39.70610 | 35.60448 | 35244 ft | 482 kts | 80° |
| 2026-05-07 20:43 | 39.71323 | 35.69114 | 35246 ft | 482 kts | 80° |
| 2026-05-07 20:44 | 39.72013 | 35.77749 | 35249 ft | 482 kts | 80° |
| 2026-05-07 20:44 | 39.72709 | 35.86418 | 35251 ft | 482 kts | 80° |
| 2026-05-07 20:45 | 39.73401 | 35.95043 | 35252 ft | 482 kts | 80° |
| 2026-05-07 20:45 | 39.74087 | 36.03711 | 35253 ft | 482 kts | 80° |
| 2026-05-07 20:46 | 39.74763 | 36.12391 | 35254 ft | 482 kts | 80° |
| 2026-05-07 20:46 | 39.75428 | 36.21066 | 35255 ft | 482 kts | 81° |
| 2026-05-07 20:47 | 39.76091 | 36.29737 | 35253 ft | 482 kts | 81° |
| 2026-05-07 20:47 | 39.76757 | 36.38358 | 35251 ft | 482 kts | 81° |
| 2026-05-07 20:48 | 39.77405 | 36.47043 | 35258 ft | 482 kts | 81° |
| 2026-05-07 20:48 | 39.78042 | 36.55676 | 35273 ft | 482 kts | 81° |
| 2026-05-07 20:49 | 39.78683 | 36.64374 | 35280 ft | 482 kts | 81° |
| 2026-05-07 20:49 | 39.79316 | 36.72997 | 35293 ft | 482 kts | 81° |
| 2026-05-07 20:50 | 39.79943 | 36.81682 | 35301 ft | 482 kts | 81° |
| 2026-05-07 20:50 | 39.80561 | 36.90366 | 35304 ft | 481 kts | 81° |
| 2026-05-07 20:51 | 39.81170 | 36.98987 | 35301 ft | 481 kts | 82° |
| 2026-05-07 20:51 | 39.81777 | 37.07648 | 35300 ft | 481 kts | 82° |
| 2026-05-07 20:52 | 39.82377 | 37.16342 | 35284 ft | 480 kts | 82° |
| 2026-05-07 20:52 | 39.82966 | 37.24988 | 35270 ft | 480 kts | 82° |
| 2026-05-07 20:53 | 39.83583 | 37.33636 | 35257 ft | 479 kts | 82° |
| 2026-05-07 20:53 | 39.84209 | 37.42224 | 35251 ft | 479 kts | 82° |
| 2026-05-07 20:54 | 39.84824 | 37.50860 | 35247 ft | 478 kts | 82° |
| 2026-05-07 20:54 | 39.85422 | 37.59497 | 35242 ft | 478 kts | 82° |
| 2026-05-07 20:55 | 39.86018 | 37.68116 | 35241 ft | 478 kts | 82° |
| 2026-05-07 20:55 | 39.86597 | 37.76682 | 35238 ft | 478 kts | 82° |
| 2026-05-07 20:56 | 39.87178 | 37.85317 | 35235 ft | 478 kts | 82° |
| 2026-05-07 20:56 | 39.87760 | 37.93952 | 35231 ft | 478 kts | 82° |
| 2026-05-07 20:57 | 39.88324 | 38.02528 | 35230 ft | 478 kts | 83° |
| 2026-05-07 20:57 | 39.88887 | 38.11164 | 35231 ft | 478 kts | 83° |
| 2026-05-07 20:58 | 39.89448 | 38.19804 | 35229 ft | 478 kts | 83° |
| 2026-05-07 20:58 | 39.90001 | 38.28387 | 35232 ft | 478 kts | 83° |
| 2026-05-07 20:59 | 39.90546 | 38.37033 | 35233 ft | 479 kts | 83° |
| 2026-05-07 20:59 | 39.91077 | 38.45695 | 35232 ft | 479 kts | 83° |
| 2026-05-07 21:00 | 39.91605 | 38.54317 | 35235 ft | 479 kts | 83° |
| 2026-05-07 21:00 | 39.92133 | 38.62964 | 35235 ft | 479 kts | 83° |
| 2026-05-07 21:01 | 39.92657 | 38.71639 | 35237 ft | 479 kts | 83° |
| 2026-05-07 21:01 | 39.93169 | 38.80307 | 35237 ft | 479 kts | 83° |
| 2026-05-07 21:02 | 39.93673 | 38.88970 | 35251 ft | 478 kts | 83° |
| 2026-05-07 21:02 | 39.94169 | 38.97541 | 35254 ft | 475 kts | 84° |
| 2026-05-07 21:03 | 39.94654 | 39.06134 | 35257 ft | 474 kts | 84° |
| 2026-05-07 21:03 | 39.95134 | 39.14661 | 35253 ft | 473 kts | 84° |
| 2026-05-07 21:04 | 39.95616 | 39.23232 | 35251 ft | 472 kts | 84° |
| 2026-05-07 21:04 | 39.96082 | 39.31795 | 35248 ft | 472 kts | 84° |
| 2026-05-07 21:05 | 39.96538 | 39.40293 | 35241 ft | 472 kts | 84° |
| 2026-05-07 21:05 | 39.97004 | 39.48854 | 35243 ft | 472 kts | 84° |
| 2026-05-07 21:06 | 39.97463 | 39.57347 | 35238 ft | 472 kts | 84° |
| 2026-05-07 21:06 | 39.97907 | 39.65895 | 35238 ft | 472 kts | 85° |
| 2026-05-07 21:07 | 39.98343 | 39.74436 | 35240 ft | 472 kts | 85° |
| 2026-05-07 21:07 | 39.98772 | 39.82947 | 35243 ft | 472 kts | 85° |
| 2026-05-07 21:08 | 39.99199 | 39.91504 | 35236 ft | 472 kts | 85° |
| 2026-05-07 21:08 | 39.99626 | 40.00086 | 35241 ft | 473 kts | 85° |
| 2026-05-07 21:09 | 40.00042 | 40.08594 | 35238 ft | 473 kts | 85° |
| 2026-05-07 21:09 | 40.00449 | 40.17164 | 35238 ft | 473 kts | 85° |
| 2026-05-07 21:10 | 40.00850 | 40.25748 | 35242 ft | 473 kts | 86° |
| 2026-05-07 21:10 | 40.01244 | 40.34333 | 35239 ft | 473 kts | 86° |
| 2026-05-07 21:11 | 40.01637 | 40.42871 | 35242 ft | 473 kts | 86° |
| 2026-05-07 21:11 | 40.02302 | 40.55771 | 35240 ft | 474 kts | 85° |
| 2026-05-07 21:12 | 40.02746 | 40.64310 | 35250 ft | 475 kts | 86° |
| 2026-05-07 21:12 | 40.03168 | 40.72906 | 35251 ft | 475 kts | 86° |
| 2026-05-07 21:13 | 40.03591 | 40.81520 | 35254 ft | 475 kts | 86° |
| 2026-05-07 21:13 | 40.04016 | 40.90130 | 35258 ft | 475 kts | 86° |
| 2026-05-07 21:14 | 40.04361 | 40.97290 | 35258 ft | 475 kts | 86° |
| 2026-05-07 21:14 | 40.04832 | 41.07323 | 35258 ft | 475 kts | 86° |
| 2026-05-07 21:15 | 40.05157 | 41.14495 | 35256 ft | 475 kts | 86° |
| 2026-05-07 21:15 | 40.05549 | 41.23116 | 35256 ft | 476 kts | 87° |
| 2026-05-07 21:16 | 40.05931 | 41.31762 | 35255 ft | 476 kts | 87° |
| 2026-05-07 21:16 | 40.06309 | 41.40351 | 35256 ft | 476 kts | 87° |
| 2026-05-07 21:17 | 40.06689 | 41.48996 | 35258 ft | 476 kts | 87° |
| 2026-05-07 21:17 | 40.07059 | 41.57657 | 35258 ft | 477 kts | 88° |
| 2026-05-07 21:18 | 40.07418 | 41.66308 | 35259 ft | 477 kts | 88° |
| 2026-05-07 21:18 | 40.07775 | 41.74923 | 35259 ft | 478 kts | 88° |
| 2026-05-07 21:19 | 40.08124 | 41.83597 | 35258 ft | 478 kts | 88° |
| 2026-05-07 21:19 | 40.08467 | 41.92288 | 35256 ft | 478 kts | 88° |
| 2026-05-07 21:20 | 40.08805 | 42.00969 | 35255 ft | 479 kts | 88° |
| 2026-05-07 21:20 | 40.09136 | 42.09605 | 35254 ft | 479 kts | 89° |
| 2026-05-07 21:21 | 40.09459 | 42.18312 | 35253 ft | 479 kts | 89° |
| 2026-05-07 21:21 | 40.09776 | 42.27029 | 35251 ft | 480 kts | 89° |
| 2026-05-07 21:22 | 40.10089 | 42.35750 | 35249 ft | 480 kts | 89° |
| 2026-05-07 21:22 | 40.10397 | 42.44433 | 35245 ft | 481 kts | 89° |
| 2026-05-07 21:23 | 40.10693 | 42.53193 | 35240 ft | 481 kts | 89° |
| 2026-05-07 21:23 | 40.10987 | 42.61937 | 35237 ft | 482 kts | 89° |
| 2026-05-07 21:24 | 40.11273 | 42.70631 | 35228 ft | 482 kts | 89° |
| 2026-05-07 21:24 | 40.11558 | 42.79416 | 35226 ft | 483 kts | 90° |
| 2026-05-07 21:25 | 40.11830 | 42.88143 | 35220 ft | 483 kts | 90° |
| 2026-05-07 21:25 | 40.12094 | 42.96935 | 35216 ft | 483 kts | 90° |
| 2026-05-07 21:26 | 40.12359 | 43.05724 | 35216 ft | 483 kts | 90° |
| 2026-05-07 21:26 | 40.12616 | 43.14465 | 35214 ft | 484 kts | 90° |
| 2026-05-07 21:27 | 40.12863 | 43.23276 | 35207 ft | 484 kts | 90° |
| 2026-05-07 21:27 | 40.13099 | 43.32084 | 35207 ft | 485 kts | 91° |
| 2026-05-07 21:28 | 40.13334 | 43.40839 | 35214 ft | 485 kts | 91° |
| 2026-05-07 21:28 | 40.13569 | 43.49670 | 35198 ft | 485 kts | 91° |
| 2026-05-07 21:29 | 40.13795 | 43.58522 | 35197 ft | 486 kts | 91° |
| 2026-05-07 21:29 | 40.14011 | 43.67302 | 35183 ft | 487 kts | 91° |
| 2026-05-07 21:30 | 40.14218 | 43.76158 | 35181 ft | 487 kts | 91° |
| 2026-05-07 21:30 | 40.14424 | 43.85035 | 35189 ft | 488 kts | 91° |
| 2026-05-07 21:31 | 40.14623 | 43.93866 | 35178 ft | 488 kts | 92° |
| 2026-05-07 21:31 | 40.14816 | 44.02764 | 35178 ft | 489 kts | 92° |
| 2026-05-07 21:32 | 40.15000 | 44.11665 | 35162 ft | 490 kts | 92° |
| 2026-05-07 21:32 | 40.15167 | 44.20531 | 35154 ft | 491 kts | 92° |
| 2026-05-07 21:33 | 40.15335 | 44.29457 | 35154 ft | 491 kts | 92° |
| 2026-05-07 21:33 | 40.15507 | 44.38411 | 35152 ft | 492 kts | 92° |
| 2026-05-07 21:34 | 40.15669 | 44.47386 | 35156 ft | 493 kts | 93° |
| 2026-05-07 21:34 | 40.15822 | 44.56365 | 35157 ft | 494 kts | 93° |
| 2026-05-07 21:35 | 40.15969 | 44.65298 | 35157 ft | 494 kts | 93° |
| 2026-05-07 21:35 | 40.16104 | 44.74310 | 35159 ft | 495 kts | 94° |
| 2026-05-07 21:36 | 40.16229 | 44.83332 | 35164 ft | 496 kts | 94° |
| 2026-05-07 21:36 | 40.16346 | 44.92309 | 35164 ft | 496 kts | 94° |
| 2026-05-07 21:37 | 40.16458 | 45.01346 | 35168 ft | 497 kts | 94° |
| 2026-05-07 21:37 | 40.16569 | 45.10421 | 35165 ft | 498 kts | 94° |
| 2026-05-07 21:38 | 40.16682 | 45.19498 | 35168 ft | 499 kts | 94° |
| 2026-05-07 21:38 | 40.16784 | 45.28523 | 35172 ft | 500 kts | 95° |
| 2026-05-07 21:39 | 40.16871 | 45.37636 | 35172 ft | 500 kts | 95° |
| 2026-05-07 21:39 | 40.16952 | 45.46747 | 35173 ft | 501 kts | 95° |
| 2026-05-07 21:40 | 40.17029 | 45.55866 | 35168 ft | 501 kts | 95° |
| 2026-05-07 21:40 | 40.17100 | 45.64941 | 35169 ft | 502 kts | 95° |
| 2026-05-07 21:41 | 40.17153 | 45.74091 | 35172 ft | 502 kts | 95° |
| 2026-05-07 21:41 | 40.17207 | 45.83227 | 35172 ft | 503 kts | 95° |
| 2026-05-07 21:42 | 40.17257 | 45.92338 | 35172 ft | 503 kts | 95° |
| 2026-05-07 21:42 | 40.17299 | 46.01513 | 35172 ft | 504 kts | 96° |
| 2026-05-07 21:43 | 40.17329 | 46.10686 | 35169 ft | 504 kts | 96° |
| 2026-05-07 21:43 | 40.17349 | 46.19861 | 35169 ft | 505 kts | 96° |
| 2026-05-07 21:44 | 40.17371 | 46.29001 | 35169 ft | 505 kts | 96° |
| 2026-05-07 21:44 | 40.17386 | 46.38210 | 35171 ft | 506 kts | 96° |
| 2026-05-07 21:45 | 40.17388 | 46.47430 | 35169 ft | 506 kts | 96° |
| 2026-05-07 21:45 | 40.17380 | 46.56579 | 35169 ft | 507 kts | 96° |
| 2026-05-07 21:46 | 40.17372 | 46.65807 | 35161 ft | 507 kts | 96° |
| 2026-05-07 21:46 | 40.17354 | 46.75054 | 35163 ft | 508 kts | 96° |
| 2026-05-07 21:47 | 40.17321 | 46.84292 | 35158 ft | 508 kts | 96° |
| 2026-05-07 21:47 | 40.17287 | 46.93483 | 35155 ft | 509 kts | 96° |
| 2026-05-07 21:48 | 40.17264 | 47.02759 | 35151 ft | 509 kts | 96° |
| 2026-05-07 21:48 | 40.17224 | 47.12026 | 35156 ft | 510 kts | 96° |
| 2026-05-07 21:49 | 40.17170 | 47.21272 | 35155 ft | 510 kts | 96° |
| 2026-05-07 21:49 | 40.17095 | 47.30567 | 35154 ft | 511 kts | 97° |
| 2026-05-07 21:50 | 40.17017 | 47.39815 | 35146 ft | 511 kts | 97° |
| 2026-05-07 21:50 | 40.17006 | 47.49127 | 35145 ft | 513 kts | 95° |
| 2026-05-07 21:51 | 40.17202 | 47.58477 | 35143 ft | 514 kts | 94° |
| 2026-05-07 21:51 | 40.17435 | 47.67835 | 35151 ft | 514 kts | 94° |
| 2026-05-07 21:52 | 40.17607 | 47.77123 | 35146 ft | 514 kts | 95° |
| 2026-05-07 21:52 | 40.17720 | 47.86482 | 35153 ft | 513 kts | 95° |
| 2026-05-07 21:53 | 40.17833 | 47.95840 | 35156 ft | 514 kts | 95° |
| 2026-05-07 21:53 | 40.17965 | 48.05133 | 35160 ft | 514 kts | 95° |
| 2026-05-07 21:54 | 40.18086 | 48.14492 | 35160 ft | 514 kts | 95° |
| 2026-05-07 21:54 | 40.18196 | 48.23840 | 35163 ft | 514 kts | 95° |
| 2026-05-07 21:55 | 40.18297 | 48.33141 | 35160 ft | 514 kts | 95° |
| 2026-05-07 21:55 | 40.18342 | 48.37824 | 34972 ft | 513 kts | 95° |
| 2026-05-07 21:55 | 40.18387 | 48.42485 | 34739 ft | 512 kts | 95° |
| 2026-05-07 21:56 | 40.18431 | 48.47147 | 34502 ft | 512 kts | 95° |
| 2026-05-07 21:56 | 40.18472 | 48.51763 | 34230 ft | 512 kts | 95° |
| 2026-05-07 21:56 | 40.18509 | 48.56454 | 33081 ft | 520 kts | 95° |
| 2026-05-07 21:56 | 40.18546 | 48.61205 | 32122 ft | 523 kts | 95° |
| 2026-05-07 21:57 | 40.18583 | 48.65980 | 31099 ft | 527 kts | 95° |
| 2026-05-07 21:57 | 40.18618 | 48.70816 | 29881 ft | 533 kts | 95° |
| 2026-05-07 21:57 | 40.18652 | 48.75680 | 28731 ft | 534 kts | 95° |
| 2026-05-07 21:57 | 40.18685 | 48.80490 | 27540 ft | 534 kts | 94° |
| 2026-05-07 21:58 | 40.18613 | 48.85325 | 26318 ft | 529 kts | 100° |
| 2026-05-07 21:58 | 40.18067 | 48.90044 | 25129 ft | 522 kts | 106° |
| 2026-05-07 21:58 | 40.17587 | 48.93135 | 24320 ft | 522 kts | 106° |
| 2026-05-07 21:58 | 40.16639 | 48.99245 | 22623 ft | 503 kts | 106° |
| 2026-05-07 21:59 | 40.16185 | 49.02171 | 22140 ft | 486 kts | 106° |
| 2026-05-07 21:59 | 40.15529 | 49.06401 | 21314 ft | 465 kts | 106° |
| 2026-05-07 21:59 | 40.14883 | 49.10523 | 20477 ft | 461 kts | 106° |
| 2026-05-07 21:59 | 40.14232 | 49.14619 | 19648 ft | 459 kts | 106° |
| 2026-05-07 22:00 | 40.13576 | 49.18708 | 18825 ft | 457 kts | 105° |
| 2026-05-07 22:00 | 40.12932 | 49.22707 | 17967 ft | 454 kts | 105° |
| 2026-05-07 22:00 | 40.12286 | 49.26736 | 17141 ft | 449 kts | 105° |
| 2026-05-07 22:00 | 40.11749 | 49.30736 | 16330 ft | 447 kts | 98° |
| 2026-05-07 22:01 | 40.11689 | 49.34790 | 15718 ft | 443 kts | 88° |
| 2026-05-07 22:01 | 40.11955 | 49.38767 | 15491 ft | 439 kts | 87° |
| 2026-05-07 22:01 | 40.12207 | 49.42746 | 15271 ft | 439 kts | 88° |
| 2026-05-07 22:01 | 40.12444 | 49.46704 | 14954 ft | 437 kts | 88° |
| 2026-05-07 22:02 | 40.12680 | 49.50620 | 14646 ft | 436 kts | 86° |
| 2026-05-07 22:02 | 40.13274 | 49.54502 | 14342 ft | 436 kts | 73° |
| 2026-05-07 22:02 | 40.14482 | 49.58131 | 14028 ft | 436 kts | 60° |
| 2026-05-07 22:02 | 40.16245 | 49.61334 | 13690 ft | 433 kts | 47° |
| 2026-05-07 22:03 | 40.18462 | 49.63964 | 13371 ft | 429 kts | 35° |
| 2026-05-07 22:03 | 40.20998 | 49.65988 | 13060 ft | 424 kts | 27° |
| 2026-05-07 22:03 | 40.23567 | 49.67858 | 12752 ft | 421 kts | 27° |
| 2026-05-07 22:03 | 40.26143 | 49.69642 | 12446 ft | 417 kts | 22° |
| 2026-05-07 22:04 | 40.28862 | 49.70912 | 12150 ft | 412 kts | 13° |
| 2026-05-07 22:04 | 40.31666 | 49.71586 | 11868 ft | 407 kts | 5° |
| 2026-05-07 22:04 | 40.34474 | 49.72061 | 11584 ft | 405 kts | 5° |
| 2026-05-07 22:04 | 40.37186 | 49.72523 | 11353 ft | 390 kts | 5° |
| 2026-05-07 22:05 | 40.39821 | 49.72977 | 11236 ft | 372 kts | 5° |
| 2026-05-07 22:05 | 40.42337 | 49.73415 | 11106 ft | 356 kts | 6° |
| 2026-05-07 22:05 | 40.44753 | 49.73840 | 10984 ft | 342 kts | 5° |
| 2026-05-07 22:05 | 40.47075 | 49.74247 | 10874 ft | 330 kts | 5° |
| 2026-05-07 22:06 | 40.49290 | 49.74635 | 10744 ft | 319 kts | 5° |
| 2026-05-07 22:06 | 40.51461 | 49.75012 | 10618 ft | 309 kts | 5° |
| 2026-05-07 22:06 | 40.53550 | 49.75374 | 10390 ft | 303 kts | 5° |
| 2026-05-07 22:06 | 40.55626 | 49.75734 | 10232 ft | 299 kts | 5° |
| 2026-05-07 22:07 | 40.57688 | 49.76092 | 10090 ft | 298 kts | 6° |
| 2026-05-07 22:07 | 40.59742 | 49.76450 | 9889 ft | 296 kts | 6° |
| 2026-05-07 22:07 | 40.61752 | 49.77042 | 9692 ft | 297 kts | 18° |
| 2026-05-07 22:07 | 40.63615 | 49.78231 | 9506 ft | 297 kts | 31° |
| 2026-05-07 22:08 | 40.65346 | 49.79633 | 9278 ft | 296 kts | 30° |
| 2026-05-07 22:08 | 40.67101 | 49.81046 | 9032 ft | 293 kts | 30° |
| 2026-05-07 22:08 | 40.68845 | 49.82447 | 8835 ft | 292 kts | 30° |
| 2026-05-07 22:08 | 40.70588 | 49.83831 | 8657 ft | 290 kts | 27° |
| 2026-05-07 22:09 | 40.72426 | 49.84797 | 8474 ft | 287 kts | 13° |
| 2026-05-07 22:09 | 40.74397 | 49.85145 | 8290 ft | 284 kts | 359° |
| 2026-05-07 22:09 | 40.76376 | 49.85136 | 8109 ft | 283 kts | 359° |
| 2026-05-07 22:09 | 40.78350 | 49.85133 | 7937 ft | 282 kts | 359° |
| 2026-05-07 22:10 | 40.80315 | 49.85135 | 7753 ft | 281 kts | 359° |
| 2026-05-07 22:10 | 40.82269 | 49.85137 | 7577 ft | 280 kts | 359° |
| 2026-05-07 22:10 | 40.84218 | 49.85139 | 7403 ft | 279 kts | 359° |
| 2026-05-07 22:10 | 40.86159 | 49.85139 | 7235 ft | 278 kts | 359° |
| 2026-05-07 22:11 | 40.88067 | 49.85134 | 7058 ft | 277 kts | 359° |
| 2026-05-07 22:11 | 40.89993 | 49.85130 | 6805 ft | 277 kts | 360° |
| 2026-05-07 22:11 | 40.91934 | 49.85172 | 6375 ft | 280 kts | 7° |
| 2026-05-07 22:11 | 40.93788 | 49.85872 | 6090 ft | 276 kts | 26° |
| 2026-05-07 22:12 | 40.95348 | 49.87311 | 5768 ft | 274 kts | 45° |
| 2026-05-07 22:12 | 40.96461 | 49.89308 | 5395 ft | 275 kts | 63° |
| 2026-05-07 22:12 | 40.97020 | 49.91704 | 5171 ft | 271 kts | 82° |
| 2026-05-07 22:12 | 40.96958 | 49.94169 | 5048 ft | 270 kts | 102° |
| 2026-05-07 22:13 | 40.96276 | 49.96478 | 4920 ft | 271 kts | 120° |
| 2026-05-07 22:13 | 40.95109 | 49.98433 | 4800 ft | 271 kts | 136° |
| 2026-05-07 22:13 | 40.93707 | 50.00107 | 4667 ft | 271 kts | 137° |
| 2026-05-07 22:13 | 40.92310 | 50.01789 | 4541 ft | 271 kts | 137° |
| 2026-05-07 22:14 | 40.90935 | 50.03459 | 4419 ft | 271 kts | 137° |
| 2026-05-07 22:14 | 40.89462 | 50.05015 | 4281 ft | 270 kts | 149° |
| 2026-05-07 22:14 | 40.87735 | 50.05982 | 4159 ft | 270 kts | 166° |
| 2026-05-07 22:14 | 40.85879 | 50.06198 | 4022 ft | 268 kts | 189° |
| 2026-05-07 22:15 | 40.84045 | 50.05703 | 3954 ft | 269 kts | 186° |
| 2026-05-07 22:15 | 40.82191 | 50.05681 | 3825 ft | 269 kts | 178° |
| 2026-05-07 22:15 | 40.80317 | 50.05787 | 3656 ft | 268 kts | 178° |
| 2026-05-07 22:15 | 40.78446 | 50.05833 | 3490 ft | 268 kts | 180° |
| 2026-05-07 22:16 | 40.76585 | 50.05857 | 3315 ft | 267 kts | 180° |
| 2026-05-07 22:16 | 40.74729 | 50.05883 | 3147 ft | 266 kts | 180° |
| 2026-05-07 22:16 | 40.72926 | 50.05911 | 3027 ft | 258 kts | 179° |
| 2026-05-07 22:16 | 40.71178 | 50.05938 | 3006 ft | 244 kts | 180° |
| 2026-05-07 22:17 | 40.69534 | 50.05963 | 3007 ft | 228 kts | 179° |
| 2026-05-07 22:17 | 40.67988 | 50.05986 | 3008 ft | 219 kts | 179° |
| 2026-05-07 22:17 | 40.66526 | 50.06008 | 3012 ft | 198 kts | 180° |
| 2026-05-07 22:17 | 40.65185 | 50.06029 | 3026 ft | 188 kts | 180° |
| 2026-05-07 22:18 | 40.63897 | 50.06048 | 2957 ft | 178 kts | 180° |
| 2026-05-07 22:18 | 40.61640 | 50.06078 | 2542 ft | 154 kts | 180° |
| 2026-05-07 22:18 | 40.60577 | 50.06092 | 2328 ft | 151 kts | 180° |
| 2026-05-07 22:19 | 40.59546 | 50.06102 | 2130 ft | 149 kts | 180° |
| 2026-05-07 22:19 | 40.58512 | 50.06116 | 1945 ft | 147 kts | 180° |
| 2026-05-07 22:19 | 40.57488 | 50.06127 | 1749 ft | 146 kts | 181° |
| 2026-05-07 22:19 | 40.56470 | 50.06124 | 1550 ft | 146 kts | 181° |
| 2026-05-07 22:20 | 40.55457 | 50.06141 | 1359 ft | 145 kts | 181° |
| 2026-05-07 22:20 | 40.54449 | 50.06152 | 1157 ft | 144 kts | 181° |
| 2026-05-07 22:20 | 40.53449 | 50.06171 | 959 ft | 143 kts | 181° |
| 2026-05-07 22:20 | 40.52467 | 50.06195 | 789 ft | 143 kts | 181° |
| 2026-05-07 22:21 | 40.51476 | 50.06213 | 594 ft | 142 kts | 179° |
| 2026-05-07 22:21 | 40.50489 | 50.06235 | 429 ft | 141 kts | 179° |
| 2026-05-07 22:21 | 40.49502 | 50.06251 | 220 ft | 141 kts | 178° |
| 2026-05-07 22:21 | 40.48519 | 50.06272 | 56 ft | 141 kts | 178° |
| 2026-05-07 22:22 | 40.47720 | 50.06287 | 14 ft | 64 kts | 179° |
| 2026-05-07 22:22 | 40.47351 | 50.06291 | 8 ft | 46 kts | 178° |
| 2026-05-07 22:22 | 40.47072 | 50.06299 | 6 ft | 35 kts | 179° |
| 2026-05-07 22:22 | 40.46864 | 50.06303 | 6 ft | 26 kts | 180° |
| 2026-05-07 22:23 | 40.46714 | 50.06306 | 6 ft | 19 kts | 181° |
| 2026-05-07 22:23 | 40.46589 | 50.06220 | 5 ft | 24 kts | 259° |
| 2026-05-07 22:23 | 40.46585 | 50.05994 | 3 ft | 26 kts | 270° |
| 2026-05-07 22:23 | 40.46518 | 50.05871 | 3 ft | 15 kts | 199° |
| 2026-05-07 22:24 | 40.46462 | 50.05861 | 2 ft | 0 kts | 179° |